createdAt,value
2022-12-31T00:01:00.197Z,5.10
2022-12-31T00:03:26.762Z,4.63
2022-12-31T00:05:53.280Z,4.35
2022-12-31T00:08:20.833Z,4.57
2022-12-31T00:10:47.253Z,4.45
2022-12-31T00:13:13.813Z,5.63
2022-12-31T00:15:40.515Z,5.10
2022-12-31T00:18:07.194Z,4.72
2022-12-31T00:20:33.602Z,4.95
2022-12-31T00:23:00.112Z,5.47
2022-12-31T00:25:26.553Z,5.82
2022-12-31T00:27:53.021Z,5.47
2022-12-31T00:30:19.446Z,5.10
2022-12-31T00:32:45.869Z,5.40
2022-12-31T00:35:12.286Z,5.13
2022-12-31T00:37:38.741Z,4.85
2022-12-31T00:40:05.652Z,5.20
2022-12-31T00:42:32.058Z,4.95
2022-12-31T00:44:58.457Z,4.70
2022-12-31T00:47:24.901Z,4.80
2022-12-31T00:49:51.300Z,4.38
2022-12-31T00:52:17.736Z,5.07
2022-12-31T00:54:44.307Z,4.68
2022-12-31T00:57:10.723Z,4.90
2022-12-31T00:59:37.181Z,4.38
2022-12-31T01:02:03.674Z,4.18
2022-12-31T01:04:30.197Z,5.18
2022-12-31T01:06:56.627Z,4.50
2022-12-31T01:09:23.053Z,3.95
2022-12-31T01:11:50.759Z,4.05
2022-12-31T01:14:18.143Z,3.85
2022-12-31T01:16:50.263Z,3.53
2022-12-31T01:19:19.163Z,3.95
2022-12-31T01:21:45.912Z,3.60
2022-12-31T01:24:12.624Z,3.75
2022-12-31T01:26:39.086Z,3.80
2022-12-31T01:29:06.172Z,3.17
2022-12-31T01:31:33.190Z,3.90
2022-12-31T01:33:59.696Z,3.90
2022-12-31T01:36:27.905Z,4.00
2022-12-31T01:38:55.406Z,3.90
2022-12-31T01:41:23.993Z,3.97
2022-12-31T01:43:57.996Z,4.50
2022-12-31T01:46:35.551Z,4.13
2022-12-31T01:49:05.916Z,3.90
2022-12-31T01:51:33.329Z,4.30
2022-12-31T01:53:59.793Z,3.95
2022-12-31T01:56:26.225Z,4.35
2022-12-31T01:58:53.412Z,3.65
2022-12-31T02:01:25.052Z,4.20
2022-12-31T02:03:52.328Z,3.80
2022-12-31T02:06:33.598Z,3.35
2022-12-31T02:09:00.142Z,3.58
2022-12-31T02:11:29.247Z,3.47
2022-12-31T02:13:58.785Z,3.42
2022-12-31T02:16:36.684Z,3.65
2022-12-31T02:19:32.731Z,3.75
2022-12-31T02:22:20.952Z,3.55
2022-12-31T02:25:11.509Z,3.83
2022-12-31T02:27:59.255Z,3.72
2022-12-31T02:30:25.692Z,3.80
2022-12-31T02:32:54.988Z,4.07
2022-12-31T02:35:26.219Z,3.55
2022-12-31T02:37:57.923Z,3.70
2022-12-31T02:40:24.646Z,4.10
2022-12-31T02:42:55.378Z,3.83
2022-12-31T02:45:26.953Z,3.78
2022-12-31T02:48:08.219Z,3.58
2022-12-31T02:50:49.122Z,3.53
2022-12-31T02:53:30.677Z,3.30
2022-12-31T02:58:45.329Z,3.03
2022-12-31T03:01:11.864Z,3.10
2022-12-31T03:03:38.367Z,3.63
2022-12-31T03:06:04.871Z,3.75
2022-12-31T03:08:31.307Z,3.47
2022-12-31T03:10:57.729Z,3.45
2022-12-31T03:13:24.609Z,3.58
2022-12-31T03:15:51.064Z,2.97
2022-12-31T03:18:18.449Z,2.90
2022-12-31T03:20:45.501Z,2.45
2022-12-31T03:23:13.527Z,1.92
2022-12-31T03:25:40.093Z,2.20
2022-12-31T03:28:11.272Z,1.90
2022-12-31T03:30:38.728Z,1.42
2022-12-31T03:33:05.511Z,1.88
2022-12-31T03:35:32.627Z,1.42
2022-12-31T03:37:59.041Z,1.70
2022-12-31T03:40:26.971Z,1.60
2022-12-31T03:42:53.379Z,1.77
2022-12-31T03:45:20.100Z,1.60
2022-12-31T03:47:46.580Z,1.48
2022-12-31T03:50:14.266Z,1.75
2022-12-31T03:52:40.700Z,1.35
2022-12-31T03:55:07.811Z,2.00
2022-12-31T03:57:34.283Z,1.55
2022-12-31T04:00:00.739Z,2.20
2022-12-31T04:02:29.247Z,2.22
2022-12-31T04:04:56.121Z,2.00
2022-12-31T04:07:22.640Z,2.25
2022-12-31T04:09:49.082Z,2.58
2022-12-31T04:12:15.521Z,2.88
2022-12-31T04:14:41.974Z,3.15
2022-12-31T04:17:08.403Z,2.90
2022-12-31T04:19:34.822Z,3.42
2022-12-31T04:22:01.301Z,3.10
2022-12-31T04:24:27.787Z,2.83
2022-12-31T04:26:54.208Z,3.40
2022-12-31T04:29:20.664Z,2.80
2022-12-31T04:31:47.143Z,3.13
2022-12-31T04:34:13.639Z,3.53
2022-12-31T04:36:40.088Z,3.38
2022-12-31T04:39:06.524Z,3.15
2022-12-31T04:41:32.969Z,3.63
2022-12-31T04:43:59.408Z,4.00
2022-12-31T04:46:27.569Z,3.42
2022-12-31T04:48:54.191Z,3.72
2022-12-31T04:51:20.806Z,3.00
2022-12-31T04:53:47.329Z,3.30
2022-12-31T04:56:13.783Z,3.47
2022-12-31T04:58:40.222Z,2.95
2022-12-31T05:01:06.997Z,3.22
2022-12-31T05:03:33.777Z,2.90
2022-12-31T05:06:01.444Z,2.97
2022-12-31T05:08:28.115Z,2.45
2022-12-31T05:10:54.573Z,2.83
2022-12-31T05:13:20.985Z,1.90
2022-12-31T05:15:47.546Z,2.08
2022-12-31T05:18:13.994Z,1.70
2022-12-31T05:20:40.510Z,2.15
2022-12-31T05:23:06.962Z,1.73
2022-12-31T05:25:33.431Z,1.60
2022-12-31T05:27:59.856Z,1.65
2022-12-31T05:30:26.440Z,1.30
2022-12-31T05:32:53.010Z,1.42
2022-12-31T05:35:19.470Z,1.73
2022-12-31T05:37:45.866Z,1.17
2022-12-31T05:40:12.404Z,1.40
2022-12-31T05:42:39.065Z,1.25
2022-12-31T05:45:06.131Z,1.48
2022-12-31T05:47:32.644Z,1.70
2022-12-31T05:49:59.063Z,1.40
2022-12-31T05:52:25.563Z,1.90
2022-12-31T05:54:52.031Z,1.33
2022-12-31T05:57:18.485Z,1.63
2022-12-31T05:59:44.901Z,1.50
2022-12-31T06:02:11.334Z,1.70
2022-12-31T06:04:37.739Z,1.10
2022-12-31T06:07:04.169Z,1.05
2022-12-31T06:09:30.574Z,1.23
2022-12-31T06:11:57.011Z,0.93
2022-12-31T06:14:23.506Z,1.17
2022-12-31T06:16:49.990Z,1.40
2022-12-31T06:19:16.422Z,0.88
2022-12-31T06:21:42.864Z,0.90
2022-12-31T06:24:09.297Z,0.80
2022-12-31T06:26:36.163Z,0.88
2022-12-31T06:29:02.589Z,0.60
2022-12-31T06:31:29.065Z,0.77
2022-12-31T06:33:55.524Z,0.50
2022-12-31T06:36:21.968Z,0.50
2022-12-31T06:38:48.469Z,0.45
2022-12-31T06:41:15.591Z,0.50
2022-12-31T06:43:42.729Z,0.38
2022-12-31T06:46:13.177Z,0.20
2022-12-31T06:48:39.673Z,0.40
2022-12-31T06:51:16.635Z,0.20
2022-12-31T06:53:44.397Z,0.38
2022-12-31T06:56:18.359Z,0.22
2022-12-31T06:58:45.110Z,0.30
2022-12-31T07:01:14.447Z,0.30
2022-12-31T07:03:59.043Z,0.52
2022-12-31T07:06:33.357Z,0.20
2022-12-31T07:09:31.345Z,0.28
2022-12-31T07:12:04.257Z,0.50
2022-12-31T07:14:52.050Z,0.40
2022-12-31T07:17:48.904Z,0.30
2022-12-31T07:20:16.743Z,0.30
2022-12-31T07:22:43.893Z,0.32
2022-12-31T07:25:13.708Z,0.20
2022-12-31T07:28:01.700Z,0.30
2022-12-31T07:30:36.256Z,0.32
2022-12-31T07:34:02.959Z,0.10
2022-12-31T07:36:50.676Z,1.13
2022-12-31T07:39:41.458Z,0.20
2022-12-31T07:42:14.040Z,0.13
2022-12-31T07:44:49.642Z,0.35
2022-12-31T07:49:52.460Z,0.25
2022-12-31T07:52:19.293Z,0.20
2022-12-31T07:54:45.888Z,0.20
2022-12-31T07:57:12.965Z,0.30
2022-12-31T08:00:08.031Z,0.20
2022-12-31T08:03:10.466Z,0.20
2022-12-31T08:06:17.805Z,0.20
2022-12-31T08:08:59.897Z,0.28
2022-12-31T08:11:37.916Z,0.10
2022-12-31T08:14:05.473Z,0.20
2022-12-31T08:16:32.249Z,0.20
2022-12-31T08:19:00.687Z,0.20
2022-12-31T08:21:36.226Z,0.40
2022-12-31T08:24:27.190Z,0.40
2022-12-31T08:26:53.554Z,0.50
2022-12-31T08:29:57.459Z,0.55
2022-12-31T08:32:38.619Z,0.50
2022-12-31T08:35:41.575Z,0.40
2022-12-31T08:38:10.853Z,0.65
2022-12-31T08:40:59.100Z,0.68
2022-12-31T08:43:56.567Z,0.60
2022-12-31T08:46:46.299Z,0.70
2022-12-31T08:49:13.136Z,0.70
2022-12-31T08:51:40.020Z,0.60
2022-12-31T08:54:10.873Z,0.50
2022-12-31T08:57:03.693Z,0.47
2022-12-31T08:59:58.792Z,0.50
2022-12-31T09:02:44.687Z,0.57
2022-12-31T09:05:38.963Z,0.95
2022-12-31T09:08:14.318Z,0.70
2022-12-31T09:10:50.711Z,0.90
2022-12-31T09:13:39.078Z,0.80
2022-12-31T09:16:19.065Z,1.15
2022-12-31T09:18:45.586Z,1.10
2022-12-31T09:21:13.596Z,1.48
2022-12-31T09:23:40.389Z,1.17
2022-12-31T09:26:40.569Z,1.30
2022-12-31T09:29:13.626Z,1.30
2022-12-31T09:31:43.395Z,1.13
2022-12-31T09:34:24.902Z,1.23
2022-12-31T09:39:30.310Z,1.20
2022-12-31T09:41:56.746Z,1.50
2022-12-31T09:45:00.355Z,1.20
2022-12-31T09:48:04.471Z,1.55
2022-12-31T09:50:54.937Z,1.23
2022-12-31T09:53:24.421Z,1.30
2022-12-31T09:56:26.423Z,1.10
2022-12-31T09:59:17.894Z,1.13
2022-12-31T10:02:32.414Z,0.90
2022-12-31T10:05:22.156Z,0.88
2022-12-31T10:07:57.452Z,0.90
2022-12-31T10:10:30.717Z,0.70
2022-12-31T10:13:35.008Z,0.60
2022-12-31T10:16:19.524Z,0.60
2022-12-31T10:18:51.792Z,0.57
2022-12-31T10:21:21.235Z,0.47
2022-12-31T10:24:19.748Z,0.30
2022-12-31T10:27:07.424Z,0.50
2022-12-31T10:30:06.325Z,0.35
2022-12-31T10:32:56.179Z,0.40
2022-12-31T10:35:36.725Z,0.38
2022-12-31T10:38:29.952Z,0.40
2022-12-31T10:41:50.682Z,0.60
2022-12-31T10:44:36.105Z,0.43
2022-12-31T10:47:11.576Z,0.35
2022-12-31T10:49:50.086Z,0.50
2022-12-31T10:52:25.531Z,0.50
2022-12-31T10:55:03.872Z,0.50
2022-12-31T10:58:02.012Z,0.57
2022-12-31T11:00:34.387Z,0.75
2022-12-31T11:03:29.910Z,0.65
2022-12-31T11:06:05.354Z,0.50
2022-12-31T11:09:16.991Z,0.43
2022-12-31T11:11:57.751Z,0.50
2022-12-31T11:14:27.125Z,0.60
2022-12-31T11:16:56.773Z,0.50
2022-12-31T11:20:05.374Z,0.63
2022-12-31T11:22:53.032Z,0.60
2022-12-31T11:25:57.230Z,0.68
2022-12-31T11:28:42.098Z,0.50
2022-12-31T11:31:18.059Z,0.60
2022-12-31T11:34:03.166Z,0.50
2022-12-31T11:36:47.989Z,0.70
2022-12-31T11:39:41.383Z,0.60
2022-12-31T11:42:27.147Z,0.70
2022-12-31T11:45:04.041Z,0.60
2022-12-31T11:48:20.568Z,0.82
2022-12-31T11:50:42.270Z,0.50
2022-12-31T11:53:45.983Z,0.63
2022-12-31T11:56:19.920Z,1.80
2022-12-31T11:58:51.254Z,0.80
2022-12-31T12:01:22.802Z,0.70
2022-12-31T12:03:49.350Z,0.47
2022-12-31T12:06:18.197Z,0.60
2022-12-31T12:08:44.654Z,0.68
2022-12-31T12:11:23.465Z,0.60
2022-12-31T12:13:49.980Z,0.57
2022-12-31T12:16:16.588Z,0.60
2022-12-31T12:19:10.121Z,0.63
2022-12-31T12:21:45.017Z,0.50
2022-12-31T12:24:25.721Z,0.50
2022-12-31T12:26:52.253Z,0.52
2022-12-31T12:29:22.834Z,0.40
2022-12-31T12:31:55.224Z,0.40
2022-12-31T12:34:24.010Z,0.38
2022-12-31T12:36:50.466Z,0.60
2022-12-31T12:39:22.196Z,0.50
2022-12-31T12:42:01.561Z,0.50
2022-12-31T12:44:27.991Z,0.40
2022-12-31T12:46:54.587Z,0.30
2022-12-31T12:49:25.956Z,0.40
2022-12-31T12:52:03.417Z,0.40
2022-12-31T12:54:48.207Z,0.63
2022-12-31T12:57:21.379Z,0.50
2022-12-31T13:00:12.294Z,0.90
2022-12-31T13:03:01.833Z,0.90
2022-12-31T13:05:47.273Z,0.60
2022-12-31T13:08:33.436Z,0.52
2022-12-31T13:11:02.793Z,0.47
2022-12-31T13:13:32.115Z,0.52
2022-12-31T13:16:10.133Z,0.50
2022-12-31T13:18:57.646Z,0.50
2022-12-31T13:21:33.097Z,0.40
2022-12-31T13:24:07.362Z,0.50
2022-12-31T13:27:09.206Z,0.40
2022-12-31T13:29:35.687Z,0.50
2022-12-31T13:32:02.616Z,0.70
2022-12-31T13:34:31.121Z,0.50
2022-12-31T13:36:59.028Z,0.45
2022-12-31T13:39:29.483Z,0.45
2022-12-31T13:42:17.153Z,1.77
2022-12-31T13:44:49.573Z,1.33
2022-12-31T13:47:19.485Z,1.30
2022-12-31T13:49:57.247Z,0.60
2022-12-31T13:52:40.119Z,0.40
2022-12-31T13:55:13.929Z,1.42
2022-12-31T13:58:20.362Z,1.08
2022-12-31T14:01:05.183Z,1.58
2022-12-31T14:03:39.641Z,5.50
2022-12-31T14:06:28.780Z,1.50
2022-12-31T14:08:55.204Z,1.40
2022-12-31T14:11:31.099Z,2.20
2022-12-31T14:14:06.278Z,1.17
2022-12-31T14:16:50.458Z,1.60
2022-12-31T14:19:44.345Z,1.40
2022-12-31T14:22:16.980Z,1.20
2022-12-31T14:24:50.107Z,0.80
2022-12-31T14:27:34.896Z,0.98
2022-12-31T14:30:06.167Z,0.90
2022-12-31T14:32:57.471Z,1.02
2022-12-31T14:35:26.621Z,1.38
2022-12-31T14:38:11.178Z,1.30
2022-12-31T14:40:43.555Z,0.98
2022-12-31T14:43:25.138Z,1.10
2022-12-31T14:45:54.473Z,1.48
2022-12-31T14:48:44.425Z,1.08
2022-12-31T14:51:10.874Z,0.80
2022-12-31T14:53:37.329Z,1.00
2022-12-31T14:56:05.399Z,0.98
2022-12-31T14:58:35.922Z,1.17
2022-12-31T15:01:06.697Z,1.48
2022-12-31T15:03:44.704Z,1.30
2022-12-31T15:06:29.373Z,1.48
2022-12-31T15:09:23.510Z,1.42
2022-12-31T15:12:25.220Z,1.40
2022-12-31T15:15:10.332Z,1.55
2022-12-31T15:17:39.695Z,1.45
2022-12-31T15:20:18.624Z,1.50
2022-12-31T15:22:48.997Z,1.25
2022-12-31T15:25:28.842Z,1.02
2022-12-31T15:27:59.378Z,1.30
2022-12-31T15:30:46.406Z,1.48
2022-12-31T15:33:28.470Z,1.23
2022-12-31T15:35:55.826Z,1.30
2022-12-31T15:38:36.042Z,1.08
2022-12-31T15:41:29.075Z,1.23
2022-12-31T15:44:19.179Z,1.38
2022-12-31T15:46:45.612Z,1.20
2022-12-31T15:49:16.279Z,1.10
2022-12-31T15:51:49.772Z,1.38
2022-12-31T15:54:43.616Z,1.00
2022-12-31T15:57:23.242Z,1.30
2022-12-31T15:59:59.766Z,4.57
2022-12-31T16:02:27.312Z,1.48
2022-12-31T16:04:53.960Z,1.25
2022-12-31T16:07:20.367Z,1.60
2022-12-31T16:09:51.933Z,1.67
2022-12-31T16:12:33.209Z,1.25
2022-12-31T16:15:00.841Z,1.58
2022-12-31T16:17:30.886Z,1.35
2022-12-31T16:19:57.655Z,1.80
2022-12-31T16:22:47.719Z,1.65
2022-12-31T16:25:31.512Z,1.58
2022-12-31T16:27:58.422Z,1.23
2022-12-31T16:30:32.054Z,3.00
2022-12-31T16:33:03.800Z,4.53
2022-12-31T16:35:34.291Z,2.88
2022-12-31T16:38:19.188Z,1.80
2022-12-31T16:41:00.614Z,1.30
2022-12-31T16:46:26.031Z,1.20
2022-12-31T16:49:00.436Z,1.05
2022-12-31T16:51:30.954Z,1.55
2022-12-31T16:53:57.528Z,2.17
2022-12-31T16:56:34.493Z,2.83
2022-12-31T16:59:13.575Z,3.72
2022-12-31T17:01:40.152Z,2.22
2022-12-31T17:04:09.509Z,1.75
2022-12-31T17:06:36.026Z,1.38
2022-12-31T17:09:11.362Z,1.55
2022-12-31T17:11:43.272Z,2.75
2022-12-31T17:14:09.543Z,2.45
2022-12-31T17:16:42.550Z,2.03
2022-12-31T17:19:31.060Z,4.97
2022-12-31T17:21:57.469Z,1.58
2022-12-31T17:24:23.908Z,1.17
2022-12-31T17:26:51.058Z,1.63
2022-12-31T17:29:26.109Z,1.90
2022-12-31T17:32:02.795Z,2.10
2022-12-31T17:34:38.793Z,2.50
2022-12-31T17:37:12.917Z,2.83
2022-12-31T17:39:55.342Z,3.08
2022-12-31T17:42:28.622Z,2.83
2022-12-31T17:45:19.301Z,2.63
2022-12-31T17:47:47.072Z,3.25
2022-12-31T17:50:18.432Z,2.40
2022-12-31T17:52:45.012Z,5.60
2022-12-31T17:55:11.444Z,7.20
2022-12-31T17:57:37.884Z,8.75
2022-12-31T18:00:08.164Z,9.80
2022-12-31T18:02:34.697Z,8.75
2022-12-31T18:05:01.161Z,6.88
2022-12-31T18:07:27.567Z,5.13
2022-12-31T18:09:54.047Z,4.03
2022-12-31T18:12:20.430Z,3.65
2022-12-31T18:14:46.885Z,3.45
2022-12-31T18:17:16.500Z,4.05
2022-12-31T18:22:29.325Z,3.50
2022-12-31T18:24:55.748Z,2.72
2022-12-31T18:27:22.275Z,2.60
2022-12-31T18:29:48.717Z,3.22
2022-12-31T18:32:24.322Z,2.75
2022-12-31T18:34:51.045Z,3.20
2022-12-31T18:37:21.795Z,3.50
2022-12-31T18:39:48.850Z,3.40
2022-12-31T18:42:18.329Z,3.97
2022-12-31T18:44:45.063Z,4.28
2022-12-31T18:47:15.473Z,3.97
2022-12-31T18:49:41.927Z,4.18
2022-12-31T18:52:12.904Z,5.63
2022-12-31T18:54:39.347Z,8.63
2022-12-31T18:57:05.740Z,3.47
2022-12-31T18:59:32.164Z,5.20
2022-12-31T19:01:58.668Z,5.93
2022-12-31T19:04:28.203Z,3.75
2022-12-31T19:09:44.184Z,3.50
2022-12-31T19:12:11.399Z,3.25
2022-12-31T19:14:37.824Z,3.90
2022-12-31T19:19:29.554Z,3.67
2022-12-31T19:21:55.975Z,4.15
2022-12-31T19:24:25.932Z,3.88
2022-12-31T19:26:52.801Z,4.32
2022-12-31T19:29:22.223Z,3.75
2022-12-31T19:31:48.874Z,3.20
2022-12-31T19:34:15.629Z,2.55
2022-12-31T19:36:44.229Z,3.25
2022-12-31T19:39:16.120Z,3.70
2022-12-31T19:41:43.149Z,3.97
2022-12-31T19:44:14.423Z,5.82
2022-12-31T19:46:40.836Z,5.82
2022-12-31T19:49:07.245Z,7.43
2022-12-31T19:51:33.684Z,4.13
2022-12-31T19:54:00.105Z,7.00
2022-12-31T19:56:26.567Z,8.27
2022-12-31T19:58:56.744Z,3.58
2022-12-31T20:01:24.330Z,3.20
2022-12-31T20:03:51.007Z,5.70
2022-12-31T20:06:18.719Z,9.77
2022-12-31T20:08:45.294Z,3.13
2022-12-31T20:11:21.172Z,4.53
2022-12-31T20:13:47.957Z,3.17
2022-12-31T20:16:18.374Z,4.55
2022-12-31T20:18:45.562Z,7.40
2022-12-31T20:21:19.689Z,9.77
2022-12-31T20:23:49.451Z,4.22
2022-12-31T20:26:17.223Z,3.05
2022-12-31T20:28:43.657Z,2.70
2022-12-31T20:31:11.833Z,4.10
2022-12-31T20:33:39.855Z,3.78
2022-12-31T20:36:07.382Z,3.15
2022-12-31T20:38:37.219Z,3.70
2022-12-31T20:41:08.355Z,4.13
2022-12-31T20:43:34.902Z,3.65
2022-12-31T20:46:16.361Z,2.97
2022-12-31T20:48:43.783Z,3.70
2022-12-31T20:51:10.214Z,2.00
2022-12-31T20:53:36.661Z,2.25
2022-12-31T20:56:06.541Z,2.80
2022-12-31T20:58:33.639Z,2.58
2022-12-31T21:01:00.176Z,2.28
2022-12-31T21:04:03.184Z,2.47
2022-12-31T21:06:13.269Z,2.15
2022-12-31T21:08:39.881Z,2.60
2022-12-31T21:11:06.504Z,2.28
2022-12-31T21:13:33.034Z,2.67
2022-12-31T21:15:59.543Z,2.95
2022-12-31T21:18:25.995Z,3.58
2022-12-31T21:20:52.480Z,3.50
2022-12-31T21:23:20.202Z,6.85
2022-12-31T21:25:48.995Z,7.10
2022-12-31T21:28:15.411Z,3.35
2022-12-31T21:30:41.987Z,3.22
2022-12-31T21:33:08.452Z,2.58
2022-12-31T21:35:46.918Z,3.20
2022-12-31T21:38:18.261Z,9.45
2022-12-31T21:40:47.100Z,3.28
2022-12-31T21:43:13.661Z,3.85
2022-12-31T21:45:40.123Z,2.55
2022-12-31T21:48:06.726Z,3.10
2022-12-31T21:50:33.488Z,3.58
2022-12-31T21:53:00.154Z,2.33
2022-12-31T21:55:26.595Z,2.75
2022-12-31T21:58:24.709Z,2.03
2022-12-31T22:00:42.836Z,1.83
2022-12-31T22:03:11.704Z,1.73
2022-12-31T22:05:38.310Z,2.55
2022-12-31T22:08:04.964Z,1.75
2022-12-31T22:10:43.572Z,1.95
2022-12-31T22:13:15.381Z,11.23
2022-12-31T22:15:43.226Z,2.42
2022-12-31T22:18:09.673Z,1.85
2022-12-31T22:20:36.077Z,1.48
2022-12-31T22:23:02.489Z,2.00
2022-12-31T22:25:28.930Z,2.05
2022-12-31T22:30:42.381Z,2.30
2022-12-31T22:33:08.783Z,1.92
2022-12-31T22:35:35.289Z,1.60
2022-12-31T22:38:08.127Z,1.85
2022-12-31T22:40:38.053Z,1.75
2022-12-31T22:43:04.459Z,1.75
2022-12-31T22:45:30.933Z,1.23
2022-12-31T22:47:57.358Z,1.98
2022-12-31T22:50:24.936Z,2.13
2022-12-31T22:52:51.456Z,1.92
2022-12-31T22:55:18.072Z,2.15
2022-12-31T22:57:48.316Z,2.70
2022-12-31T23:00:15.136Z,3.65
2022-12-31T23:02:42.388Z,4.32
2022-12-31T23:05:16.008Z,7.00
2022-12-31T23:07:45.625Z,16.65
2022-12-31T23:10:12.038Z,11.15
2022-12-31T23:12:39.967Z,15.55
2022-12-31T23:15:06.972Z,10.88
2022-12-31T23:17:33.390Z,10.02
2022-12-31T23:20:00.436Z,9.35
2022-12-31T23:22:26.902Z,7.70
2022-12-31T23:24:53.293Z,7.90
2022-12-31T23:27:19.696Z,5.95
2022-12-31T23:29:47.651Z,5.63
2022-12-31T23:32:17.833Z,5.03
2022-12-31T23:34:44.719Z,5.60
2022-12-31T23:37:14.639Z,5.50
2022-12-31T23:39:41.346Z,4.95
2022-12-31T23:42:07.788Z,7.55
2022-12-31T23:44:34.268Z,4.90
2022-12-31T23:47:00.810Z,9.50
2022-12-31T23:49:27.453Z,6.38
2022-12-31T23:51:53.849Z,4.40
2022-12-31T23:54:20.280Z,4.57
2022-12-31T23:56:46.683Z,3.67
2022-12-31T23:59:13.247Z,3.65
